Time;durP1;ratioP1;P1;durP2;ratioP2;P2;SDS_P1;SDS_P2;PMS_P1;PMS_P2;Temp;Humidity;BMP_temperature;BMP_pressure;BME280_temperature;BME280_humidity;BME280_pressure;Samples;Min_cycle;Max_cycle;Signal;HPM_P1;HPM_P2
2024/03/03 00:03:54;;;;;;;7.05;3.00;;;;;;;8.20;57.30;98390.72;10435255;28;20073;-60
2024/03/03 00:08:56;;;;;;;7.00;3.58;;;;;;;7.75;58.18;98382.69;10433916;28;20045;-60
2024/03/03 00:13:58;;;;;;;6.45;3.45;;;;;;;7.62;58.15;98381.94;10433691;28;20513;-60
2024/03/03 00:19:00;;;;;;;5.45;3.45;;;;;;;7.56;59.18;98351.16;10430323;28;20390;-60
2024/03/03 00:24:02;;;;;;;7.45;3.63;;;;;;;7.50;59.02;98340.34;10434238;28;20037;-60
2024/03/03 00:29:04;;;;;;;6.75;3.08;;;;;;;7.53;59.15;98316.75;10427697;28;20052;-60
2024/03/03 00:34:06;;;;;;;7.43;3.30;;;;;;;7.55;59.12;98328.66;10429148;28;20063;-59
2024/03/03 00:39:08;;;;;;;7.38;3.40;;;;;;;7.62;59.18;98337.69;10426526;28;20052;-60
2024/03/03 00:44:11;;;;;;;6.22;3.20;;;;;;;7.69;59.13;98338.09;10428790;28;20045;-59
2024/03/03 00:49:13;;;;;;;6.85;3.55;;;;;;;7.91;58.66;98361.59;10428965;28;20124;-59
2024/03/03 00:54:16;;;;;;;7.00;2.95;;;;;;;7.75;58.62;98355.84;10428971;28;20074;-60
2024/03/03 00:59:18;;;;;;;5.75;2.80;;;;;;;7.66;58.78;98348.69;10428106;28;20378;-60
2024/03/03 01:04:20;;;;;;;5.72;2.90;;;;;;;7.71;58.72;98344.00;10428901;28;20493;-60
2024/03/03 01:09:22;;;;;;;6.95;3.55;;;;;;;7.61;58.74;98359.44;10461003;28;20045;-60
2024/03/03 01:14:24;;;;;;;5.35;2.72;;;;;;;7.56;58.88;98342.50;10427285;28;20137;-60
2024/03/03 01:19:26;;;;;;;7.03;2.97;;;;;;;7.54;59.10;98339.19;10426961;28;20056;-60
2024/03/03 01:24:29;;;;;;;7.93;3.55;;;;;;;7.58;59.21;98348.44;10428125;28;20048;-60
2024/03/03 01:29:31;;;;;;;6.97;3.95;;;;;;;7.65;59.26;98337.47;10443450;28;20513;-60
2024/03/03 01:34:33;;;;;;;6.68;3.38;;;;;;;7.73;59.16;98340.34;10426995;28;20049;-61
2024/03/03 01:39:38;;;;;;;6.70;3.05;;;;;;;7.72;59.13;98325.69;10433098;28;20071;-60
2024/03/03 01:44:41;;;;;;;6.90;3.17;;;;;;;7.66;59.03;98327.88;10435897;28;20041;-60
2024/03/03 01:49:47;;;;;;;7.43;3.25;;;;;;;7.60;59.02;98318.78;10435116;28;20103;-60
2024/03/03 01:54:49;;;;;;;8.27;3.17;;;;;;;7.58;59.27;98325.03;10435953;28;20511;-60
2024/03/03 01:59:52;;;;;;;6.90;3.20;;;;;;;7.58;59.11;98304.22;10434478;28;20103;-60
2024/03/03 02:04:56;;;;;;;7.90;3.15;;;;;;;7.61;59.38;98297.00;10433543;28;20571;-60
2024/03/03 02:09:59;;;;;;;7.28;3.67;;;;;;;7.76;59.37;98311.50;10432615;28;20191;-60
2024/03/03 02:15:01;;;;;;;8.40;3.97;;;;;;;7.77;59.00;98301.91;10434106;28;20497;-60
2024/03/03 02:20:04;;;;;;;6.32;3.20;;;;;;;7.68;59.29;98315.59;10434151;28;20485;-61
2024/03/03 02:25:08;;;;;;;6.38;3.00;;;;;;;7.73;59.39;98308.31;10433558;28;20048;-60
2024/03/03 02:30:11;;;;;;;6.65;3.63;;;;;;;7.78;59.22;98314.81;10433000;28;20136;-59
2024/03/03 02:35:14;;;;;;;6.75;3.28;;;;;;;7.80;59.14;98325.94;10434452;28;20045;-60
2024/03/03 02:40:16;;;;;;;8.27;3.20;;;;;;;7.66;59.01;98343.50;10432781;28;20128;-60
2024/03/03 02:45:19;;;;;;;6.10;3.10;;;;;;;7.47;59.35;98377.81;10433153;28;20527;-60
2024/03/03 02:50:21;;;;;;;6.15;2.72;;;;;;;7.26;59.51;98376.75;10431374;28;20053;-59
2024/03/03 02:55:23;;;;;;;6.82;3.40;;;;;;;7.26;59.86;98378.53;10432095;28;20063;-59
2024/03/03 03:00:26;;;;;;;7.97;4.00;;;;;;;7.26;59.85;98352.53;10415792;28;20255;-60
2024/03/03 03:05:28;;;;;;;7.22;3.72;;;;;;;7.10;60.34;98350.19;10432094;28;20037;-60
2024/03/03 03:10:30;;;;;;;6.70;3.80;;;;;;;7.08;60.31;98346.88;10447772;28;20115;-60
2024/03/03 03:15:35;;;;;;;5.07;3.00;;;;;;;6.82;60.46;98356.47;10415093;28;20049;-59
2024/03/03 03:20:37;;;;;;;8.65;3.40;;;;;;;6.75;60.72;98347.44;10432737;28;20041;-60
2024/03/03 03:25:39;;;;;;;6.72;3.45;;;;;;;6.70;60.69;98353.88;10436107;28;20556;-59
2024/03/03 03:30:42;;;;;;;8.35;4.10;;;;;;;6.61;60.83;98370.13;10435026;28;20103;-60
2024/03/03 03:35:44;;;;;;;8.27;4.50;;;;;;;6.51;61.18;98371.69;10435406;28;20053;-60
2024/03/03 03:40:46;;;;;;;5.90;3.40;;;;;;;6.30;61.56;98355.78;10435943;28;20641;-60
2024/03/03 03:45:48;;;;;;;7.32;3.55;;;;;;;6.24;61.57;98369.13;10436132;28;20129;-60
2024/03/03 03:50:54;;;;;;;6.47;3.45;;;;;;;6.07;62.00;98367.66;10435560;28;20049;-59
2024/03/03 03:55:56;;;;;;;8.48;3.60;;;;;;;6.24;61.75;98357.00;10434436;28;20055;-61
2024/03/03 04:00:58;;;;;;;8.82;3.75;;;;;;;6.14;62.02;98353.31;10433443;28;20149;-59
2024/03/03 04:06:00;;;;;;;7.72;3.97;;;;;;;6.27;62.52;98350.78;10433179;28;20614;-60
2024/03/03 04:11:03;;;;;;;7.88;3.67;;;;;;;6.27;62.19;98363.75;10433381;28;20064;-60
2024/03/03 04:16:06;;;;;;;5.47;3.13;;;;;;;6.40;62.03;98363.75;10433030;28;20509;-59
2024/03/03 04:21:08;;;;;;;8.68;3.90;;;;;;;6.60;61.92;98366.69;10433220;28;20335;-60
2024/03/03 04:26:12;;;;;;;8.65;3.38;;;;;;;6.58;61.94;98365.13;10434451;28;20064;-60
2024/03/03 04:31:14;;;;;;;9.80;4.10;;;;;;;6.62;61.88;98358.78;10434077;28;20425;-60
2024/03/03 04:36:16;;;;;;;7.20;3.83;;;;;;;6.66;61.97;98355.88;10416122;28;20053;-60
2024/03/03 04:41:20;;;;;;;8.50;3.85;;;;;;;6.73;61.74;98353.69;10429496;28;20049;-60
2024/03/03 04:46:22;;;;;;;9.38;4.00;;;;;;;6.68;61.57;98341.00;10428762;28;20056;-60
2024/03/03 04:51:24;;;;;;;8.15;3.72;;;;;;;6.50;61.47;98337.06;10429663;28;20562;-59
2024/03/03 04:56:27;;;;;;;10.20;4.43;;;;;;;6.43;61.51;98329.81;10426321;28;20056;-60
2024/03/03 05:01:29;;;;;;;7.93;4.18;;;;;;;6.41;62.05;98342.88;10427521;28;20084;-60
2024/03/03 05:06:32;;;;;;;8.70;3.70;;;;;;;6.24;62.11;98341.41;10426769;28;20052;-59
2024/03/03 05:11:35;;;;;;;8.18;4.35;;;;;;;5.93;62.27;98331.41;10428215;28;20060;-59
2024/03/03 05:16:38;;;;;;;7.00;3.42;;;;;;;5.85;62.63;98341.47;10428192;28;20056;-60
2024/03/03 05:21:41;;;;;;;7.80;3.72;;;;;;;5.76;62.92;98321.31;10428692;28;20041;-60
2024/03/03 05:26:43;;;;;;;8.63;3.75;;;;;;;5.76;63.01;98326.50;10427770;28;20052;-59
2024/03/03 05:31:45;;;;;;;6.65;3.47;;;;;;;5.81;62.98;98341.75;10428607;28;20073;-60
2024/03/03 05:36:48;;;;;;;8.93;3.63;;;;;;;5.85;62.81;98345.81;10427835;28;20081;-59
2024/03/03 05:41:50;;;;;;;7.45;3.83;;;;;;;5.95;62.70;98350.31;10426921;28;20045;-59
2024/03/03 05:46:52;;;;;;;10.57;3.83;;;;;;;5.88;62.89;98343.84;10426060;28;20052;-59
2024/03/03 05:51:55;;;;;;;9.23;4.53;;;;;;;5.95;62.68;98350.31;10427598;28;20045;-59
2024/03/03 05:56:57;;;;;;;8.45;4.15;;;;;;;6.00;62.72;98348.22;10428171;28;20409;-59
2024/03/03 06:02:01;;;;;;;10.18;4.03;;;;;;;5.96;62.91;98346.75;10460009;28;20049;-59
2024/03/03 06:07:04;;;;;;;12.20;5.10;;;;;;;5.93;62.70;98339.19;10427210;28;20041;-59
2024/03/03 06:12:07;;;;;;;9.50;4.10;;;;;;;5.89;62.98;98345.53;10427581;28;20088;-59
2024/03/03 06:17:09;;;;;;;7.32;3.72;;;;;;;5.89;62.75;98340.34;10427518;28;20077;-59
2024/03/03 06:22:11;;;;;;;10.68;4.53;;;;;;;5.79;62.94;98339.28;10426235;28;20132;-60
2024/03/03 06:27:13;;;;;;;10.00;4.68;;;;;;;5.80;62.93;98343.50;10433101;28;20120;-59
2024/03/03 06:32:15;;;;;;;14.98;4.72;;;;;;;5.99;62.83;98349.16;10432885;28;21098;-59
2024/03/03 06:37:18;;;;;;;9.13;4.13;;;;;;;6.07;62.59;98335.69;10434992;28;20423;-59
2024/03/03 06:42:20;;;;;;;7.57;3.47;;;;;;;6.03;62.73;98342.84;10434521;28;20151;-60
2024/03/03 06:47:22;;;;;;;10.27;4.15;;;;;;;6.17;62.46;98352.28;10433865;28;20040;-60
2024/03/03 06:52:25;;;;;;;6.70;3.63;;;;;;;6.18;62.31;98360.00;10432810;28;20088;-60
2024/03/03 06:57:27;;;;;;;10.35;4.20;;;;;;;6.29;62.29;98367.09;10433479;28;20122;-60
2024/03/03 07:02:57;;;;;;;10.32;4.70;;;;;;;6.51;62.05;98375.09;10433089;28;20624;-60
2024/03/03 07:07:52;;;;;;;7.75;3.72;;;;;;;6.78;61.78;98364.56;10431412;28;20049;-59
2024/03/03 07:12:54;;;;;;;7.65;4.38;;;;;;;6.99;61.52;98365.69;10433026;28;20049;-60
2024/03/03 07:17:56;;;;;;;6.80;3.55;;;;;;;7.21;61.21;98373.63;10432315;28;20045;-59
2024/03/03 07:22:58;;;;;;;7.85;3.80;;;;;;;7.30;60.90;98365.19;10431606;28;20052;-59
2024/03/03 07:28:01;;;;;;;11.05;3.88;;;;;;;7.36;60.95;98358.72;10430944;28;20142;-60
2024/03/03 07:33:03;;;;;;;9.65;3.95;;;;;;;7.74;60.54;98354.19;10432189;28;20040;-60
2024/03/03 07:38:05;;;;;;;8.60;4.10;;;;;;;8.09;60.20;98354.19;10430404;28;20041;-60
2024/03/03 07:43:08;;;;;;;10.18;4.68;;;;;;;8.35;60.02;98353.09;10431454;28;20061;-60
2024/03/03 07:48:10;;;;;;;9.60;4.20;;;;;;;8.28;59.86;98363.13;10446823;28;20064;-60
2024/03/03 07:53:12;;;;;;;9.55;4.45;;;;;;;8.61;59.46;98364.97;10431770;28;20049;-60
2024/03/03 07:58:14;;;;;;;8.50;5.07;;;;;;;9.08;58.92;98382.97;10435409;28;20045;-60
2024/03/03 08:03:16;;;;;;;7.38;3.72;;;;;;;9.45;58.39;98392.19;10435361;28;20080;-61
2024/03/03 08:08:18;;;;;;;6.97;3.78;;;;;;;9.51;58.01;98391.69;10435192;28;20056;-59
2024/03/03 08:13:20;;;;;;;8.52;4.40;;;;;;;9.58;57.85;98389.44;10434489;28;20061;-60
2024/03/03 08:18:22;;;;;;;8.45;3.70;;;;;;;9.91;57.29;98386.72;10434733;28;20107;-60
2024/03/03 08:23:24;;;;;;;9.73;4.63;;;;;;;10.23;56.87;98379.72;10434470;28;20564;-60
2024/03/03 08:28:26;;;;;;;9.40;4.07;;;;;;;10.92;55.80;98372.94;10434602;28;20076;-59
2024/03/03 08:33:29;;;;;;;7.28;4.30;;;;;;;11.42;54.72;98373.81;10433362;28;20389;-60
2024/03/03 08:38:31;;;;;;;9.43;4.68;;;;;;;11.34;54.08;98372.84;10434324;28;20142;-60
2024/03/03 08:43:33;;;;;;;9.90;4.85;;;;;;;11.30;54.38;98361.78;10432166;28;20183;-60
2024/03/03 08:48:35;;;;;;;9.40;4.63;;;;;;;11.23;54.04;98361.50;10432914;28;20052;-60
2024/03/03 08:53:37;;;;;;;9.88;4.50;;;;;;;11.35;53.98;98364.00;10431971;28;20716;-60
2024/03/03 08:58:39;;;;;;;8.68;3.78;;;;;;;11.14;54.09;98353.63;10433689;28;20044;-60
2024/03/03 09:03:42;;;;;;;8.50;4.25;;;;;;;11.21;53.88;98347.72;10433510;28;20056;-59
2024/03/03 09:08:44;;;;;;;8.25;4.60;;;;;;;11.08;54.19;98347.16;10464881;28;20049;-60
2024/03/03 09:13:46;;;;;;;7.90;3.92;;;;;;;11.16;54.08;98344.69;10433001;28;20401;-60
2024/03/03 09:18:49;;;;;;;7.85;4.07;;;;;;;11.42;53.45;98344.22;10432795;28;20063;-61
2024/03/03 09:23:51;;;;;;;9.68;4.60;;;;;;;11.32;53.11;98345.97;10448593;28;20055;-60
2024/03/03 09:28:53;;;;;;;8.45;4.47;;;;;;;11.42;53.30;98336.34;10431521;28;20048;-60
2024/03/03 09:33:56;;;;;;;8.38;4.28;;;;;;;11.38;52.67;98324.50;10432466;28;20041;-60
2024/03/03 09:38:58;;;;;;;9.85;4.07;;;;;;;11.69;52.53;98328.66;10430430;28;20072;-60
2024/03/03 09:44:11;;;;;;;7.65;4.55;;;;;;;11.90;50.96;98316.25;10432232;28;20033;-60
2024/03/03 09:49:18;;;;;;;8.98;4.28;;;;;;;12.08;51.93;98306.72;10432130;28;20049;-60
2024/03/03 09:54:22;;;;;;;8.23;3.97;;;;;;;12.24;51.58;98301.72;10442110;28;20045;-60
2024/03/03 09:59:24;;;;;;;7.75;4.25;;;;;;;12.48;51.81;98299.47;10429505;28;20043;-60
2024/03/03 10:04:28;;;;;;;6.88;3.80;;;;;;;12.56;51.27;98299.56;10435632;28;20052;-60
2024/03/03 10:09:32;;;;;;;10.15;4.63;;;;;;;12.49;50.80;98306.38;10431711;28;20521;-60
2024/03/03 10:14:35;;;;;;;7.80;3.80;;;;;;;12.56;50.74;98294.34;10434025;28;20092;-60
2024/03/03 10:19:37;;;;;;;7.05;4.07;;;;;;;12.90;50.86;98289.38;10434642;28;20044;-60
2024/03/03 10:24:39;;;;;;;8.73;4.00;;;;;;;12.90;49.97;98278.88;10434599;28;20041;-60
2024/03/03 10:29:43;;;;;;;8.45;4.72;;;;;;;13.06;50.61;98293.97;10434651;28;20136;-60
2024/03/03 10:34:57;;;;;;;9.57;4.30;;;;;;;13.11;48.81;98297.81;10433669;28;20456;-60
2024/03/03 10:40:01;;;;;;;8.73;4.57;;;;;;;13.15;49.62;98274.75;10432319;28;20040;-60
2024/03/03 10:45:04;;;;;;;7.97;4.15;;;;;;;13.24;49.41;98272.03;10433107;28;20127;-60
2024/03/03 10:50:08;;;;;;;8.07;3.88;;;;;;;13.42;48.35;98267.66;10433198;28;20068;-60
2024/03/03 10:55:13;;;;;;;7.78;3.63;;;;;;;13.34;49.22;98264.91;10433279;28;20045;-60
2024/03/03 11:00:22;;;;;;;10.55;5.05;;;;;;;13.23;49.49;98265.13;10434089;28;20099;-61
2024/03/03 11:05:26;;;;;;;10.38;4.60;;;;;;;13.01;48.28;98247.16;10432766;28;20045;-60
2024/03/03 11:10:32;;;;;;;7.88;3.92;;;;;;;12.84;49.19;98243.53;10433029;28;20066;-60
2024/03/03 11:15:35;;;;;;;6.60;3.65;;;;;;;13.02;49.29;98242.75;10431696;28;20070;-61
2024/03/03 11:20:40;;;;;;;7.65;4.18;;;;;;;13.05;49.09;98245.91;10432271;28;20055;-59
2024/03/03 11:25:59;;;;;;;8.18;4.50;;;;;;;13.20;48.61;98241.81;10461118;28;20132;-59
2024/03/03 11:31:02;;;;;;;7.95;4.00;;;;;;;13.50;48.72;98236.22;10446859;28;20063;-59
2024/03/03 11:36:05;;;;;;;7.40;4.00;;;;;;;13.58;48.50;98227.56;10446006;28;20634;-59
2024/03/03 11:41:11;;;;;;;8.85;3.53;;;;;;;13.71;48.18;98222.78;10428262;28;20459;-59
2024/03/03 11:46:58;;;;;;;8.75;4.07;;;;;;;13.53;46.31;98214.09;10427180;28;20053;-59
2024/03/03 11:52:00;;;;;;;7.35;3.75;;;;;;;13.41;47.88;98202.13;10429031;28;20470;-59
2024/03/03 11:57:05;;;;;;;7.50;3.50;;;;;;;13.50;47.83;98198.63;10428775;28;20056;-57
2024/03/03 12:02:16;;;;;;;9.20;4.28;;;;;;;13.84;47.39;98202.16;10428343;28;20413;-59
2024/03/03 12:07:20;;;;;;;7.65;3.80;;;;;;;14.03;46.95;98203.75;10428561;28;20455;-59
2024/03/03 12:12:22;;;;;;;8.40;3.90;;;;;;;14.00;46.68;98193.56;10428877;28;20056;-59
2024/03/03 12:17:25;;;;;;;6.60;3.67;;;;;;;14.15;46.84;98189.38;10445157;28;20092;-59
2024/03/03 12:22:31;;;;;;;8.23;4.32;;;;;;;14.34;46.71;98190.00;10425159;28;20048;-57
2024/03/03 12:27:35;;;;;;;6.53;3.65;;;;;;;14.68;46.45;98189.16;10428473;28;20085;-59
2024/03/03 12:32:37;;;;;;;6.60;3.65;;;;;;;14.63;44.86;98187.00;10427304;28;20037;-58
2024/03/03 12:37:42;;;;;;;8.07;4.22;;;;;;;14.67;45.56;98180.44;10427212;28;20056;-58
2024/03/03 12:42:58;;;;;;;8.05;3.70;;;;;;;14.72;45.10;98182.59;10443360;28;20615;-59
2024/03/03 12:48:11;;;;;;;5.43;3.03;;;;;;;14.71;43.55;98176.53;10444370;28;20103;-58
2024/03/03 12:53:23;;;;;;;9.40;3.95;;;;;;;14.98;45.17;98168.34;10428628;28;20094;-58
2024/03/03 12:58:48;;;;;;;5.72;2.95;;;;;;;14.95;44.54;98167.84;10426794;28;20452;-57
2024/03/03 13:03:58;;;;;;;6.28;3.47;;;;;;;15.07;44.54;98162.13;10427552;28;20697;-55
2024/03/03 13:09:12;;;;;;;7.10;3.42;;;;;;;15.33;44.16;98146.16;10426975;28;20045;-58
2024/03/03 13:14:28;;;;;;;7.78;3.38;;;;;;;15.20;42.14;98148.47;10428079;28;20053;-57
2024/03/03 13:19:47;;;;;;;6.35;3.40;;;;;;;15.24;43.46;98140.09;10426182;28;20175;-58
2024/03/03 13:24:57;;;;;;;7.00;3.35;;;;;;;15.37;44.19;98131.66;10427606;28;20051;-57
2024/03/03 13:30:04;;;;;;;5.55;3.15;;;;;;;15.39;44.02;98132.31;10428641;28;20040;-57
2024/03/03 13:35:07;;;;;;;9.10;3.53;;;;;;;15.63;43.97;98128.91;10430369;28;20049;-57
2024/03/03 13:40:10;;;;;;;6.22;3.22;;;;;;;15.63;43.50;98129.72;10435163;28;20620;-57
2024/03/03 13:45:12;;;;;;;6.28;3.17;;;;;;;15.70;43.58;98124.59;10430166;28;20045;-57
2024/03/03 13:50:14;;;;;;;6.28;3.00;;;;;;;16.00;43.30;98124.69;10431729;28;20072;-57
2024/03/03 13:55:16;;;;;;;8.07;3.55;;;;;;;16.06;43.03;98126.66;10427451;28;20079;-57
2024/03/03 14:00:20;;;;;;;7.32;3.58;;;;;;;16.20;42.73;98123.28;10414703;28;20045;-54
2024/03/03 14:05:23;;;;;;;5.50;3.10;;;;;;;16.14;42.12;98121.34;10462949;28;20114;-56
2024/03/03 14:10:25;;;;;;;5.40;3.13;;;;;;;16.34;42.51;98128.88;10433512;28;20523;-57
2024/03/03 14:15:29;;;;;;;6.72;2.80;;;;;;;16.29;42.27;98134.66;10433221;28;20053;-57
2024/03/03 14:20:32;;;;;;;7.95;3.30;;;;;;;16.23;42.48;98130.88;10430999;28;20716;-58
2024/03/03 14:25:34;;;;;;;5.05;2.45;;;;;;;16.29;42.23;98126.72;10432221;28;20045;-56
2024/03/03 14:30:37;;;;;;;6.03;2.70;;;;;;;16.30;42.45;98125.75;10431208;28;20179;-58
2024/03/03 14:35:39;;;;;;;5.18;3.03;;;;;;;16.46;42.10;98130.16;10430524;28;20041;-58
2024/03/03 14:40:41;;;;;;;7.63;3.03;;;;;;;16.36;42.08;98135.63;10431864;28;20056;-58
2024/03/03 14:45:44;;;;;;;6.57;3.00;;;;;;;16.28;41.99;98143.56;10431476;28;20045;-57
2024/03/03 14:50:47;;;;;;;6.05;3.08;;;;;;;16.27;41.92;98143.72;10430687;28;20098;-57
2024/03/03 14:55:49;;;;;;;5.57;2.60;;;;;;;16.13;42.04;98153.16;10428570;28;20053;-58
2024/03/03 15:00:51;;;;;;;5.20;3.17;;;;;;;16.27;42.15;98144.53;10427947;28;20048;-57
2024/03/03 15:05:56;;;;;;;4.72;2.67;;;;;;;16.33;42.53;98140.41;10427947;28;20437;-58
2024/03/03 15:10:59;;;;;;;6.10;2.85;;;;;;;16.22;42.24;98154.81;10431387;28;20053;-58
2024/03/03 15:16:03;;;;;;;4.82;2.72;;;;;;;15.98;42.45;98155.69;10426343;28;20052;-58
2024/03/03 15:21:05;;;;;;;6.30;3.10;;;;;;;15.75;42.40;98156.56;10429443;28;20563;-58
2024/03/03 15:26:07;;;;;;;5.47;3.15;;;;;;;15.82;42.83;98168.06;10429950;28;20134;-57
2024/03/03 15:31:09;;;;;;;5.00;2.88;;;;;;;15.70;43.09;98162.31;10430146;28;20095;-58
2024/03/03 15:36:11;;;;;;;5.57;2.85;;;;;;;15.74;43.08;98171.53;10429981;28;20083;-57
2024/03/03 15:41:13;;;;;;;4.03;2.38;;;;;;;15.84;42.80;98182.72;10424858;28;20049;-57
2024/03/03 15:46:16;;;;;;;6.57;2.55;;;;;;;15.86;42.42;98183.38;10426219;28;20060;-55
2024/03/03 15:51:18;;;;;;;5.63;2.50;;;;;;;15.96;41.86;98191.94;10430950;28;21260;-57
2024/03/03 15:56:20;;;;;;;7.18;3.50;;;;;;;16.05;42.42;98195.38;10426149;28;20057;-57
2024/03/03 16:01:24;;;;;;;4.68;2.53;;;;;;;15.95;42.46;98200.84;10428489;28;20063;-57
2024/03/03 16:06:26;;;;;;;4.68;2.50;;;;;;;15.95;42.62;98197.38;10427808;28;20063;-57
2024/03/03 16:11:28;;;;;;;7.90;3.20;;;;;;;15.81;42.78;98206.81;10426519;28;20057;-58
2024/03/03 16:16:32;;;;;;;5.35;2.50;;;;;;;15.71;43.07;98213.22;10427671;28;20063;-57
2024/03/03 16:21:35;;;;;;;4.97;2.53;;;;;;;15.72;43.28;98220.97;10426633;28;20136;-58
2024/03/03 16:26:38;;;;;;;5.15;2.95;;;;;;;15.58;43.65;98224.25;10430233;28;20045;-57
2024/03/03 16:31:40;;;;;;;5.68;2.70;;;;;;;15.37;43.58;98232.59;10426922;28;20048;-57
2024/03/03 16:36:43;;;;;;;5.32;2.75;;;;;;;15.33;43.69;98225.19;10426175;28;20454;-58
2024/03/03 16:41:45;;;;;;;6.03;3.10;;;;;;;15.16;44.55;98234.06;10426898;28;20044;-58
2024/03/03 16:46:47;;;;;;;4.30;2.42;;;;;;;15.01;44.39;98246.19;10423662;28;20065;-58
2024/03/03 16:51:49;;;;;;;6.43;2.78;;;;;;;14.81;45.00;98247.44;10426549;28;20044;-57
2024/03/03 16:56:51;;;;;;;8.02;3.65;;;;;;;14.53;45.30;98260.78;10425921;28;20515;-58
2024/03/03 17:01:53;;;;;;;10.50;3.40;;;;;;;14.35;45.40;98260.00;10423202;28;20045;-58
2024/03/03 17:06:57;;;;;;;7.30;3.17;;;;;;;14.15;45.86;98269.06;10427552;28;20049;-58
2024/03/03 17:11:59;;;;;;;5.47;3.20;;;;;;;13.94;46.21;98278.28;10424855;28;20128;-58
2024/03/03 17:17:01;;;;;;;5.05;2.85;;;;;;;13.74;46.45;98291.59;10441593;28;20049;-57
2024/03/03 17:22:03;;;;;;;4.50;2.72;;;;;;;13.55;46.74;98302.28;10425195;28;20260;-57
2024/03/03 17:27:06;;;;;;;5.97;2.72;;;;;;;13.32;47.03;98313.31;10414767;28;20780;-55
2024/03/03 17:32:09;;;;;;;5.50;3.03;;;;;;;13.10;47.83;98318.97;10418548;28;20148;-57
2024/03/03 17:37:12;;;;;;;5.38;3.05;;;;;;;12.87;48.18;98326.38;10407614;28;20937;-57
2024/03/03 17:42:19;;;;;;;5.95;3.13;;;;;;;12.72;48.64;98325.22;10450756;28;20072;-58
2024/03/03 17:47:21;;;;;;;6.68;2.90;;;;;;;12.57;48.92;98331.88;10420494;28;20915;-56
2024/03/03 17:52:23;;;;;;;4.80;2.67;;;;;;;12.38;49.32;98353.72;10400916;28;20603;-58
2024/03/03 17:57:26;;;;;;;6.35;3.60;;;;;;;12.28;49.47;98357.28;10417392;28;20052;-62
2024/03/03 18:02:28;;;;;;;4.78;2.80;;;;;;;12.10;50.19;98359.81;10426360;28;20524;-62
2024/03/03 18:07:30;;;;;;;7.88;3.05;;;;;;;11.99;50.40;98370.41;10426993;28;20052;-62
2024/03/03 18:12:33;;;;;;;6.15;2.97;;;;;;;11.85;50.32;98382.16;10423803;28;20520;-61
2024/03/03 18:17:38;;;;;;;4.80;2.53;;;;;;;11.64;51.11;98381.41;10429149;28;20053;-61
2024/03/03 18:22:41;;;;;;;6.25;3.00;;;;;;;11.52;51.35;98386.94;10434140;28;20045;-62
2024/03/03 18:27:44;;;;;;;6.22;3.85;;;;;;;11.41;51.37;98389.66;10435959;28;20045;-62
2024/03/03 18:32:46;;;;;;;6.25;2.83;;;;;;;11.26;51.99;98392.66;10435961;28;20493;-62
2024/03/03 18:37:48;;;;;;;7.72;3.47;;;;;;;11.12;52.11;98405.25;10431798;28;20131;-62
2024/03/03 18:42:51;;;;;;;8.88;3.65;;;;;;;10.93;52.61;98413.00;10432080;28;20041;-62
2024/03/03 18:47:55;;;;;;;7.80;3.55;;;;;;;10.69;53.09;98413.28;10431331;28;20060;-62
2024/03/03 18:52:58;;;;;;;5.40;3.20;;;;;;;10.55;53.37;98415.38;10431564;28;20045;-61
2024/03/03 18:58:00;;;;;;;4.18;2.60;;;;;;;10.44;53.58;98421.50;10434795;28;20053;-61
2024/03/03 19:03:03;;;;;;;6.00;3.03;;;;;;;10.29;53.92;98428.84;10433241;28;20052;-62
2024/03/03 19:08:07;;;;;;;5.35;3.08;;;;;;;10.12;54.28;98429.38;10432076;28;20041;-62
2024/03/03 19:13:09;;;;;;;5.25;2.85;;;;;;;9.98;54.67;98437.50;10433674;28;20049;-62
2024/03/03 19:18:11;;;;;;;4.47;2.72;;;;;;;9.82;55.10;98451.91;10434235;28;20059;-62
2024/03/03 19:23:13;;;;;;;5.95;3.00;;;;;;;9.78;55.11;98455.72;10434249;28;20041;-61
2024/03/03 19:28:16;;;;;;;7.18;3.53;;;;;;;9.66;55.26;98457.53;10432123;28;20056;-62
2024/03/03 19:33:19;;;;;;;5.78;3.50;;;;;;;9.50;55.59;98468.31;10431988;28;20045;-61
2024/03/03 19:38:22;;;;;;;7.28;3.50;;;;;;;9.30;56.02;98466.44;10432409;28;20072;-62
2024/03/03 19:43:25;;;;;;;6.38;2.80;;;;;;;9.27;56.26;98469.28;10433437;28;20542;-62
2024/03/03 19:48:27;;;;;;;7.10;3.50;;;;;;;9.23;56.18;98480.06;10432397;28;20049;-61
2024/03/03 19:53:30;;;;;;;5.32;3.25;;;;;;;9.03;56.54;98488.59;10432759;28;20048;-62
2024/03/03 19:58:33;;;;;;;10.38;5.57;;;;;;;8.88;56.89;98495.81;10432644;28;20041;-62
2024/03/03 20:03:36;;;;;;;11.60;4.97;;;;;;;8.76;56.99;98502.78;10428628;28;20057;-61
2024/03/03 20:08:39;;;;;;;9.88;4.88;;;;;;;8.64;57.25;98514.13;10428306;28;20045;-62
2024/03/03 20:13:43;;;;;;;8.98;3.65;;;;;;;8.56;57.42;98511.25;10428780;28;20049;-61
2024/03/03 20:18:49;;;;;;;6.65;3.28;;;;;;;8.56;57.60;98510.41;10429630;28;20049;-62
2024/03/03 20:23:52;;;;;;;7.10;3.45;;;;;;;8.51;57.70;98522.94;10429092;28;20053;-61
2024/03/03 20:28:55;;;;;;;6.65;3.25;;;;;;;8.41;57.75;98524.56;10413583;28;20048;-61
2024/03/03 20:34:00;;;;;;;6.75;3.03;;;;;;;8.30;58.16;98529.72;10434229;28;20045;-61
2024/03/03 20:39:04;;;;;;;8.95;3.42;;;;;;;8.27;58.24;98538.59;10433656;28;20562;-61
2024/03/03 20:44:07;;;;;;;9.77;3.78;;;;;;;8.19;58.34;98550.50;10433443;28;20048;-61
2024/03/03 20:49:09;;;;;;;6.07;3.42;;;;;;;8.11;58.64;98560.63;10432196;28;20108;-61
2024/03/03 20:54:12;;;;;;;5.68;2.97;;;;;;;8.12;58.58;98562.31;10430481;28;20521;-61
2024/03/03 20:59:14;;;;;;;5.72;3.13;;;;;;;8.04;58.76;98576.66;10430169;28;20049;-61
2024/03/03 21:04:17;;;;;;;8.82;2.97;;;;;;;7.94;58.94;98580.84;10430914;28;20138;-61
2024/03/03 21:09:19;;;;;;;6.35;4.07;;;;;;;7.83;59.11;98593.78;10430437;28;20053;-61
2024/03/03 21:14:22;;;;;;;17.08;8.13;;;;;;;7.78;59.20;98598.47;10426594;28;20041;-61
2024/03/03 21:19:24;;;;;;;11.00;4.72;;;;;;;7.72;59.67;98606.72;10428649;28;20049;-61
2024/03/03 21:24:26;;;;;;;32.55;18.33;;;;;;;7.63;59.65;98607.34;10445967;28;20075;-61
2024/03/03 21:29:32;;;;;;;14.63;7.90;;;;;;;7.56;60.07;98606.09;10428997;28;20126;-61
2024/03/03 21:34:34;;;;;;;12.05;5.50;;;;;;;7.45;60.18;98618.19;10428707;28;20065;-61
2024/03/03 21:39:37;;;;;;;17.92;10.45;;;;;;;7.50;60.67;98616.09;10432945;28;20049;-61
2024/03/03 21:44:39;;;;;;;9.73;4.68;;;;;;;7.72;60.67;98624.09;10429762;28;20045;-61
2024/03/03 21:49:41;;;;;;;10.57;5.97;;;;;;;7.94;60.50;98626.88;10429156;28;20041;-62
2024/03/03 21:54:43;;;;;;;8.43;4.00;;;;;;;8.06;60.36;98630.41;10435790;28;20052;-61
2024/03/03 21:59:45;;;;;;;8.90;4.20;;;;;;;8.34;60.25;98635.38;10438222;28;20146;-61
2024/03/03 22:04:48;;;;;;;8.43;4.30;;;;;;;8.47;60.06;98646.56;10439075;28;20056;-61
2024/03/03 22:09:51;;;;;;;6.68;3.63;;;;;;;8.49;60.04;98648.13;10437955;28;20059;-61
2024/03/03 22:14:54;;;;;;;7.50;3.85;;;;;;;8.61;59.96;98649.00;10440173;28;20099;-61
2024/03/03 22:19:57;;;;;;;5.53;3.45;;;;;;;8.57;60.20;98656.22;10439272;28;20123;-61
2024/03/03 22:24:59;;;;;;;6.70;3.38;;;;;;;8.58;60.16;98663.09;10439118;28;20110;-61
2024/03/03 22:30:03;;;;;;;8.27;3.65;;;;;;;8.66;60.48;98662.56;10437137;28;20090;-61
2024/03/03 22:35:08;;;;;;;7.18;3.70;;;;;;;8.76;60.10;98672.22;10455084;28;20194;-61
2024/03/03 22:40:13;;;;;;;7.75;3.65;;;;;;;8.70;60.48;98680.47;10438864;28;20056;-61
2024/03/03 22:45:16;;;;;;;6.70;3.58;;;;;;;8.78;60.38;98693.78;10438634;28;20497;-61
2024/03/03 22:50:22;;;;;;;7.78;3.45;;;;;;;8.80;60.24;98691.91;10436942;28;20413;-61
2024/03/03 22:55:24;;;;;;;7.32;3.58;;;;;;;8.81;60.40;98703.16;10438495;28;20044;-61
2024/03/03 23:00:28;;;;;;;7.90;3.38;;;;;;;8.74;60.48;98707.13;10436257;28;20965;-61
2024/03/03 23:05:30;;;;;;;7.45;3.90;;;;;;;8.69;60.96;98709.22;10437028;28;20065;-61
2024/03/03 23:10:33;;;;;;;8.38;3.88;;;;;;;8.61;61.32;98704.56;10436999;28;20057;-61
2024/03/03 23:15:36;;;;;;;8.75;5.13;;;;;;;8.57;61.56;98704.88;10437435;28;20547;-61
2024/03/03 23:20:39;;;;;;;8.77;5.00;;;;;;;8.56;61.69;98711.91;10436291;28;20045;-61
2024/03/03 23:25:43;;;;;;;11.70;6.53;;;;;;;8.52;61.81;98725.25;10437218;28;20131;-61
2024/03/03 23:30:46;;;;;;;13.23;6.15;;;;;;;8.53;62.21;98724.28;10435654;28;20045;-62
2024/03/03 23:35:48;;;;;;;13.65;6.10;;;;;;;8.50;61.57;98740.16;10436522;28;20079;-61
2024/03/03 23:40:51;;;;;;;13.43;6.68;;;;;;;8.42;61.80;98742.47;10435307;28;20517;-61